Irura, Spain
Current Conditions -  °F | °C
As of 9:30 PM on Saturday 22 Nov 2014 (Local Time) from LESO Reporting Station
Clear Clear  
Wind Chill: 20°   Ceiling: Unl
Heat Index: 20°   Visibility: 6mi
Dew Point: 11°   Wind: 12mph
Humidity: 56%   Direction: 90°E
Pressure: 29.85"   Gusts: NA
Location:  43.17°N, 2.07°W
Report Text: LESO 222030Z 09010KT 060V130 CAVOK 20/11 Q1011
Loading
Personal Weather Stations






























Interactive Weather Map New forecast layout! Learn more

10-Day Weather Forecast

Advertisements
Track Severe Weather on mobile